Time;durP1;ratioP1;P1;durP2;ratioP2;P2;SDS_P1;SDS_P2;PMS_P1;PMS_P2;Temp;Humidity;BMP_temperature;BMP_pressure;BME280_temperature;BME280_humidity;BME280_pressure;Samples;Min_cycle;Max_cycle;Signal;HPM_P1;HPM_P2
2023/05/08 00:01:30;;;;;;;8.52;4.50;;;12.90;68.20;;;;;;5114534;28;20076;-73
2023/05/08 00:03:56;;;;;;;8.40;3.80;;;12.90;68.50;;;;;;5113323;28;20073;-73
2023/05/08 00:06:22;;;;;;;6.63;3.60;;;12.90;68.20;;;;;;5115309;28;20032;-73
2023/05/08 00:08:47;;;;;;;6.95;3.80;;;12.90;68.50;;;;;;5112484;28;20425;-73
2023/05/08 00:11:13;;;;;;;7.75;4.30;;;12.90;68.70;;;;;;5115610;28;20027;-73
2023/05/08 00:13:40;;;;;;;7.97;3.70;;;13.00;68.90;;;;;;5114277;28;20420;-73
2023/05/08 00:16:10;;;;;;;7.30;3.88;;;13.00;69.10;;;;;;5115931;27;20027;-73
2023/05/08 00:18:37;;;;;;;6.82;3.97;;;13.00;70.40;;;;;;5116390;28;20102;-73
2023/05/08 00:21:03;;;;;;;7.25;3.92;;;12.90;70.60;;;;;;5118589;27;20089;-73
2023/05/08 00:23:29;;;;;;;10.02;4.20;;;12.90;70.00;;;;;;5114170;28;20043;-73
2023/05/08 00:25:55;;;;;;;11.77;3.28;;;12.90;70.40;;;;;;5113426;28;20054;-73
2023/05/08 00:28:20;;;;;;;8.15;3.50;;;12.90;70.30;;;;;;5115596;28;20031;-73
2023/05/08 00:30:46;;;;;;;6.03;3.55;;;12.90;70.40;;;;;;5115426;28;20024;-73
2023/05/08 00:33:14;;;;;;;6.22;3.58;;;12.90;70.80;;;;;;5113810;28;20067;-72
2023/05/08 00:35:42;;;;;;;7.32;3.95;;;12.90;70.50;;;;;;5116972;28;20035;-73
2023/05/08 00:38:09;;;;;;;11.10;3.97;;;12.90;70.50;;;;;;5113910;28;20846;-73
2023/05/08 00:40:34;;;;;;;6.32;3.70;;;12.90;70.90;;;;;;5116629;28;20415;-73
2023/05/08 00:43:00;;;;;;;8.70;3.90;;;12.90;70.30;;;;;;5112788;28;20047;-73
2023/05/08 00:45:35;;;;;;;9.40;4.00;;;12.90;70.30;;;;;;5112590;28;20031;-73
2023/05/08 00:48:01;;;;;;;7.65;3.90;;;12.90;69.90;;;;;;5116595;28;20024;-73
2023/05/08 00:50:26;;;;;;;6.47;3.83;;;12.90;69.40;;;;;;5109431;28;20152;-73
2023/05/08 00:52:53;;;;;;;5.50;3.90;;;12.90;69.10;;;;;;5095873;28;20369;-73
2023/05/08 00:55:19;;;;;;;8.20;5.38;;;12.90;68.70;;;;;;5115016;28;20031;-73
2023/05/08 00:57:46;;;;;;;7.00;3.70;;;13.00;69.10;;;;;;5111235;28;20507;-73
2023/05/08 01:00:15;;;;;;;8.30;4.00;;;13.00;69.50;;;;;;5096900;28;20024;-73
2023/05/08 01:02:40;;;;;;;6.95;4.38;;;12.90;69.80;;;;;;5110859;28;20023;-73
2023/05/08 01:05:06;;;;;;;7.22;4.55;;;12.90;69.80;;;;;;5116161;28;20323;-73
2023/05/08 01:07:32;;;;;;;5.70;4.13;;;12.80;70.20;;;;;;5115938;28;20347;-73
2023/05/08 01:09:57;;;;;;;6.55;3.78;;;12.80;69.10;;;;;;5116956;28;20081;-73
2023/05/08 01:12:49;;;;;;;7.57;4.00;;;12.80;68.30;;;;;;5114714;28;20384;-73
2023/05/08 01:15:26;;;;;;;6.97;4.20;;;12.80;68.30;;;;;;5114802;28;20027;-73
2023/05/08 01:18:25;;;;;;;5.10;3.88;;;12.80;68.70;;;;;;5117772;28;20493;-73
2023/05/08 01:21:27;;;;;;;11.02;4.35;;;12.80;68.30;;;;;;5089540;28;20036;-73
2023/05/08 01:24:22;;;;;;;7.38;3.75;;;12.80;68.00;;;;;;5114139;28;20411;-72
2023/05/08 01:26:57;;;;;;;8.23;3.75;;;12.80;68.00;;;;;;5086679;28;20420;-73
2023/05/08 01:29:47;;;;;;;6.05;3.80;;;12.80;67.70;;;;;;5088354;28;20038;-73
2023/05/08 01:32:16;;;;;;;9.77;3.90;;;12.80;68.50;;;;;;5114995;28;20027;-73
2023/05/08 01:34:52;;;;;;;8.18;4.15;;;12.90;69.10;;;;;;5098783;28;20260;-73
2023/05/08 01:37:29;;;;;;;7.25;4.30;;;12.90;69.30;;;;;;5082347;28;20709;-73
2023/05/08 01:40:14;;;;;;;7.18;4.43;;;12.90;69.20;;;;;;5091222;28;20030;-73
2023/05/08 01:42:48;;;;;;;8.07;4.97;;;12.90;69.40;;;;;;5090752;28;20353;-74
2023/05/08 01:45:20;;;;;;;;;;;12.90;69.80;;;;;;5091651;28;20027;-73
2023/05/08 01:47:55;;;;;;;7.35;4.43;;;12.90;70.60;;;;;;5092016;28;19931;-73
2023/05/08 01:50:24;;;;;;;8.02;4.45;;;12.90;70.60;;;;;;5098310;28;20077;-73
2023/05/08 01:53:16;;;;;;;7.07;4.13;;;12.80;70.50;;;;;;5107096;28;20036;-73
2023/05/08 01:55:43;;;;;;;11.52;5.38;;;12.80;69.60;;;;;;5099671;28;20440;-73
2023/05/08 01:58:11;;;;;;;7.93;5.07;;;12.80;69.30;;;;;;5106815;28;20121;-73
2023/05/08 02:00:39;;;;;;;10.93;6.00;;;12.80;68.90;;;;;;5107970;28;20034;-73
2023/05/08 02:03:08;;;;;;;8.20;5.43;;;12.80;68.90;;;;;;5109849;28;20085;-72
2023/05/08 02:05:36;;;;;;;8.52;5.70;;;12.80;68.10;;;;;;5113091;28;20308;-73
2023/05/08 02:08:03;;;;;;;10.13;5.13;;;12.80;68.00;;;;;;5098703;28;20032;-73
2023/05/08 02:10:31;;;;;;;7.28;5.45;;;12.70;67.60;;;;;;5111070;28;20019;-75
2023/05/08 02:13:00;;;;;;;9.90;6.55;;;12.70;67.40;;;;;;5109149;28;20035;-75
2023/05/08 02:15:28;;;;;;;8.40;5.88;;;12.70;67.40;;;;;;5107516;28;20114;-74
2023/05/08 02:17:54;;;;;;;8.95;5.32;;;12.70;66.90;;;;;;5112788;28;20032;-74
2023/05/08 02:20:21;;;;;;;10.23;6.32;;;12.70;66.70;;;;;;5109654;28;20023;-73
2023/05/08 02:22:51;;;;;;;8.13;5.13;;;12.80;66.80;;;;;;5110079;28;20045;-73
2023/05/08 02:25:17;;;;;;;8.77;5.03;;;12.70;67.00;;;;;;5110222;28;20016;-73
2023/05/08 02:27:48;;;;;;;8.30;4.40;;;12.70;67.30;;;;;;5113985;28;20068;-73
2023/05/08 02:30:15;;;;;;;6.90;4.68;;;12.70;66.80;;;;;;5111131;28;20024;-73
2023/05/08 02:32:46;;;;;;;7.00;5.10;;;12.70;67.40;;;;;;5113804;28;20446;-73
2023/05/08 02:35:14;;;;;;;6.05;4.75;;;12.70;67.60;;;;;;5109375;28;20038;-73
2023/05/08 02:37:46;;;;;;;7.85;5.63;;;12.60;67.00;;;;;;5112196;28;20051;-73
2023/05/08 02:40:13;;;;;;;7.72;4.72;;;12.60;66.80;;;;;;5114870;28;20103;-73
2023/05/08 02:42:39;;;;;;;8.43;5.30;;;12.60;66.60;;;;;;5110113;28;20039;-73
2023/05/08 02:45:05;;;;;;;6.22;4.65;;;12.60;66.50;;;;;;5113368;28;20031;-73
2023/05/08 02:47:54;;;;;;;8.00;5.82;;;12.60;65.80;;;;;;5111610;28;20024;-73
2023/05/08 02:50:29;;;;;;;7.75;5.72;;;12.60;66.20;;;;;;5111325;28;20420;-73
2023/05/08 02:53:03;;;;;;;9.85;6.03;;;12.70;66.00;;;;;;5110472;28;20031;-73
2023/05/08 02:55:34;;;;;;;;;;;12.70;65.50;;;;;;5115047;28;20031;-73
2023/05/08 02:58:23;;;;;;;8.75;6.50;;;12.70;65.50;;;;;;5114423;28;19919;-73
2023/05/08 03:01:05;;;;;;;9.05;4.43;;;12.70;65.00;;;;;;5115248;28;20481;-73
2023/05/08 03:03:44;;;;;;;7.80;4.70;;;12.70;65.50;;;;;;5109733;28;20058;-73
2023/05/08 03:06:34;;;;;;;7.75;5.22;;;12.70;65.80;;;;;;5101868;28;20024;-73
2023/05/08 03:09:01;;;;;;;6.97;4.90;;;12.70;66.00;;;;;;5108212;28;20047;-72
2023/05/08 03:11:35;;;;;;;8.10;5.85;;;12.70;66.40;;;;;;5108354;28;20106;-73
2023/05/08 03:14:05;;;;;;;8.52;5.35;;;12.60;66.70;;;;;;5105580;28;20405;-73
2023/05/08 03:16:32;;;;;;;8.38;6.18;;;12.60;66.60;;;;;;5096460;28;20050;-73
2023/05/08 03:19:02;;;;;;;8.18;5.63;;;12.60;66.60;;;;;;5061912;28;20024;-73
2023/05/08 03:21:30;;;;;;;9.02;5.82;;;12.60;66.60;;;;;;5101025;28;20032;-73
2023/05/08 03:23:58;;;;;;;8.88;5.78;;;12.60;66.30;;;;;;5081302;28;20024;-73
2023/05/08 03:26:25;;;;;;;8.27;6.32;;;12.70;66.10;;;;;;5112315;28;20039;-73
2023/05/08 03:28:52;;;;;;;9.38;6.00;;;12.70;66.20;;;;;;5104306;28;20332;-73
2023/05/08 03:31:22;;;;;;;9.75;5.85;;;12.70;66.50;;;;;;5105459;28;20027;-73
2023/05/08 03:33:54;;;;;;;8.30;5.55;;;12.70;66.70;;;;;;5107511;28;20320;-73
2023/05/08 03:36:21;;;;;;;7.60;5.38;;;12.70;66.80;;;;;;5113263;27;20019;-73
2023/05/08 03:38:47;;;;;;;8.68;6.75;;;12.70;67.00;;;;;;5111210;27;20031;-74
2023/05/08 03:41:13;;;;;;;7.95;5.57;;;12.70;68.20;;;;;;5113310;27;20059;-73
2023/05/08 03:43:40;;;;;;;8.60;4.90;;;12.70;68.40;;;;;;5113241;27;20352;-73
2023/05/08 03:46:06;;;;;;;7.43;5.47;;;12.80;68.10;;;;;;5119035;27;20364;-73
2023/05/08 03:48:35;;;;;;;8.00;5.30;;;12.80;68.40;;;;;;5090672;28;20027;-73
2023/05/08 03:51:02;;;;;;;7.10;5.57;;;12.80;68.30;;;;;;5111794;28;20073;-73
2023/05/08 03:53:29;;;;;;;8.35;6.07;;;12.80;68.30;;;;;;5128599;27;20102;-73
2023/05/08 03:55:59;;;;;;;10.57;7.65;;;12.80;69.20;;;;;;5121324;27;20085;-73
2023/05/08 03:58:37;;;;;;;9.82;6.65;;;12.80;70.00;;;;;;5111701;27;20043;-73
2023/05/08 04:01:10;;;;;;;8.00;6.03;;;12.80;69.30;;;;;;5115568;27;20027;-73
2023/05/08 04:03:43;;;;;;;11.55;5.68;;;12.90;69.30;;;;;;5094249;28;20020;-73
2023/05/08 04:06:15;;;;;;;6.78;5.43;;;12.90;71.30;;;;;;5121670;27;20024;-72
2023/05/08 04:08:48;;;;;;;7.30;5.45;;;12.90;71.10;;;;;;5120780;27;20103;-73
2023/05/08 04:11:18;;;;;;;;;;;12.90;71.00;;;;;;5117151;27;20474;-73
2023/05/08 04:13:58;;;;;;;7.88;5.47;;;12.90;71.30;;;;;;5098230;28;19908;-72
2023/05/08 04:16:27;;;;;;;9.35;5.07;;;12.90;71.90;;;;;;5117662;27;20020;-73
2023/05/08 04:19:09;;;;;;;6.40;5.22;;;12.90;72.30;;;;;;5116911;28;20046;-73
2023/05/08 04:21:38;;;;;;;7.80;6.00;;;12.90;72.40;;;;;;5094066;28;20320;-73
2023/05/08 04:24:08;;;;;;;9.75;6.22;;;12.90;72.30;;;;;;5109922;28;20024;-73
2023/05/08 04:26:37;;;;;;;10.40;7.55;;;13.00;71.70;;;;;;5117303;28;20074;-73
2023/05/08 04:29:05;;;;;;;9.75;6.18;;;13.00;72.10;;;;;;5090531;28;20096;-73
2023/05/08 04:31:31;;;;;;;8.07;5.90;;;13.00;71.90;;;;;;5116526;28;20016;-73
2023/05/08 04:33:57;;;;;;;10.93;7.28;;;13.10;71.60;;;;;;5119341;28;20108;-73
2023/05/08 04:36:24;;;;;;;9.63;6.03;;;13.20;72.40;;;;;;5114603;28;20051;-73
2023/05/08 04:38:50;;;;;;;6.68;5.18;;;13.20;72.00;;;;;;5117224;28;20028;-73
2023/05/08 04:41:18;;;;;;;7.88;5.93;;;13.30;72.10;;;;;;5113842;28;20020;-73
2023/05/08 04:43:44;;;;;;;8.48;5.40;;;13.40;73.90;;;;;;5091332;28;20040;-73
2023/05/08 04:46:09;;;;;;;7.70;5.30;;;13.40;75.10;;;;;;5113010;28;20023;-73
2023/05/08 04:48:35;;;;;;;6.70;5.05;;;13.50;74.80;;;;;;5108174;28;20048;-73
2023/05/08 04:51:00;;;;;;;7.95;6.07;;;13.50;76.80;;;;;;5092813;28;20414;-73
2023/05/08 04:53:26;;;;;;;9.85;6.30;;;13.50;78.40;;;;;;5111892;28;20031;-73
2023/05/08 04:55:52;;;;;;;8.32;5.90;;;13.50;78.40;;;;;;5107610;28;20123;-73
2023/05/08 04:58:17;;;;;;;51.88;31.85;;;13.60;78.40;;;;;;5110868;28;20168;-73
2023/05/08 05:00:43;;;;;;;90.80;57.80;;;13.70;79.90;;;;;;5107866;28;20038;-73
2023/05/08 05:03:08;;;;;;;16.40;11.63;;;13.70;80.40;;;;;;5117372;28;20038;-73
2023/05/08 05:05:34;;;;;;;14.45;10.90;;;13.80;81.10;;;;;;5114840;28;20099;-75
2023/05/08 05:08:00;;;;;;;14.27;10.10;;;13.80;82.00;;;;;;5094432;28;20443;-74
2023/05/08 05:10:26;;;;;;;11.65;9.02;;;13.80;81.80;;;;;;5110782;28;20035;-73
2023/05/08 05:12:51;;;;;;;11.80;8.75;;;13.70;82.80;;;;;;5114273;28;20370;-74
2023/05/08 05:15:17;;;;;;;13.70;9.00;;;13.80;81.90;;;;;;5114536;28;20100;-73
2023/05/08 05:17:43;;;;;;;11.15;8.50;;;13.80;83.00;;;;;;5117407;28;20032;-73
2023/05/08 05:20:09;;;;;;;14.15;8.20;;;13.80;82.90;;;;;;5098458;28;20073;-73
2023/05/08 05:22:37;;;;;;;11.25;8.63;;;13.90;82.90;;;;;;5116577;28;20034;-73
2023/05/08 05:25:03;;;;;;;12.13;7.78;;;13.90;83.90;;;;;;5110935;28;20631;-73
2023/05/08 05:27:29;;;;;;;11.40;9.13;;;14.00;84.20;;;;;;5117852;28;20063;-73
2023/05/08 05:29:54;;;;;;;13.63;8.65;;;14.00;85.80;;;;;;5111185;28;20024;-73
2023/05/08 05:32:20;;;;;;;11.13;8.15;;;14.00;86.30;;;;;;5116002;27;20102;-73
2023/05/08 05:34:45;;;;;;;13.63;9.35;;;13.90;86.50;;;;;;5102681;28;20028;-73
2023/05/08 05:37:11;;;;;;;11.02;8.55;;;13.90;86.00;;;;;;5118101;28;20038;-73
2023/05/08 05:39:37;;;;;;;12.73;8.88;;;13.80;85.20;;;;;;5092596;27;20172;-73
2023/05/08 05:42:02;;;;;;;11.40;8.50;;;13.90;84.40;;;;;;5116102;27;20362;-73
2023/05/08 05:44:28;;;;;;;12.20;9.57;;;13.90;83.60;;;;;;5112872;28;20349;-74
2023/05/08 05:46:53;;;;;;;12.60;8.18;;;13.90;84.20;;;;;;5115009;28;20040;-73
2023/05/08 05:49:19;;;;;;;12.98;8.75;;;14.00;83.60;;;;;;5112475;28;20110;-73
2023/05/08 05:51:45;;;;;;;10.05;8.18;;;14.10;84.10;;;;;;5117564;28;20420;-73
2023/05/08 05:54:10;;;;;;;11.35;8.90;;;14.20;84.30;;;;;;5116458;28;20023;-73
2023/05/08 05:56:36;;;;;;;13.43;9.30;;;14.30;86.10;;;;;;5117498;28;20038;-73
2023/05/08 05:59:02;;;;;;;11.70;9.02;;;14.50;85.90;;;;;;5116533;28;20020;-73
2023/05/08 06:01:27;;;;;;;13.45;9.13;;;14.70;87.20;;;;;;5115659;27;20043;-73
2023/05/08 06:03:53;;;;;;;11.93;9.85;;;14.70;89.60;;;;;;5115108;28;20316;-73
2023/05/08 06:06:19;;;;;;;12.27;9.15;;;14.80;89.70;;;;;;5115350;28;20035;-73
2023/05/08 06:08:47;;;;;;;13.07;9.20;;;14.80;91.10;;;;;;5113260;27;20024;-73
2023/05/08 06:11:12;;;;;;;13.52;9.57;;;14.80;91.80;;;;;;5120298;27;20031;-73
2023/05/08 06:13:40;;;;;;;15.68;10.27;;;14.70;91.20;;;;;;5117391;28;20020;-73
2023/05/08 06:16:06;;;;;;;12.52;9.52;;;14.70;91.30;;;;;;5117434;28;20344;-74
2023/05/08 06:18:32;;;;;;;12.75;10.30;;;14.50;90.40;;;;;;5117004;28;20393;-73
2023/05/08 06:20:58;;;;;;;13.27;9.73;;;14.50;90.20;;;;;;5113873;28;20027;-73
2023/05/08 06:23:24;;;;;;;15.25;10.98;;;14.40;89.40;;;;;;5114831;28;20073;-73
2023/05/08 06:25:50;;;;;;;13.68;10.18;;;14.20;88.30;;;;;;5097239;28;20019;-73
2023/05/08 06:28:15;;;;;;;13.40;10.90;;;14.10;86.10;;;;;;5088727;28;20104;-73
2023/05/08 06:30:41;;;;;;;13.68;10.55;;;14.10;86.20;;;;;;5112408;28;20071;-73
2023/05/08 06:33:08;;;;;;;14.15;10.00;;;14.10;85.80;;;;;;5112871;28;20023;-73
2023/05/08 06:35:34;;;;;;;16.40;12.68;;;14.10;85.10;;;;;;5107979;28;20404;-73
2023/05/08 06:38:00;;;;;;;13.30;10.52;;;14.00;85.60;;;;;;5110441;28;20027;-73
2023/05/08 06:40:25;;;;;;;15.48;11.98;;;13.90;84.50;;;;;;5115475;28;20042;-73
2023/05/08 06:42:51;;;;;;;16.58;13.18;;;13.90;84.20;;;;;;5112281;28;20035;-73
2023/05/08 06:45:16;;;;;;;16.85;13.68;;;13.80;82.40;;;;;;5116965;28;20424;-73
2023/05/08 06:47:42;;;;;;;15.77;13.02;;;13.80;80.70;;;;;;5115978;28;20042;-73
2023/05/08 06:50:08;;;;;;;14.95;12.60;;;13.70;79.60;;;;;;5116891;28;20463;-73
2023/05/08 06:52:33;;;;;;;14.82;11.95;;;13.70;77.20;;;;;;5096551;28;20028;-73
2023/05/08 06:55:02;;;;;;;21.30;16.02;;;13.80;76.90;;;;;;5116788;28;20035;-73
2023/05/08 06:57:29;;;;;;;23.55;16.35;;;13.90;79.20;;;;;;5114040;28;20036;-73
2023/05/08 06:59:55;;;;;;;22.08;16.80;;;14.00;80.10;;;;;;5097804;28;20023;-73
2023/05/08 07:02:20;;;;;;;19.27;14.90;;;13.90;80.40;;;;;;5115753;28;20428;-73
2023/05/08 07:04:46;;;;;;;23.73;17.90;;;14.00;78.10;;;;;;5116851;28;20047;-74
2023/05/08 07:07:13;;;;;;;23.95;19.05;;;14.10;78.70;;;;;;5113263;28;20107;-75
2023/05/08 07:09:38;;;;;;;21.85;17.42;;;14.10;78.90;;;;;;5112817;28;20020;-75
2023/05/08 07:12:04;;;;;;;28.45;20.60;;;14.00;77.50;;;;;;5078402;28;20031;-75
2023/05/08 07:14:30;;;;;;;32.95;22.70;;;13.90;77.30;;;;;;5096128;28;20025;-75
2023/05/08 07:16:57;;;;;;;31.33;21.80;;;13.80;75.40;;;;;;5102330;28;20063;-74
2023/05/08 07:19:25;;;;;;;31.42;23.35;;;13.70;73.80;;;;;;5116422;28;20030;-74
2023/05/08 07:21:51;;;;;;;34.67;23.77;;;13.70;72.40;;;;;;5115652;28;20073;-74
2023/05/08 07:24:16;;;;;;;30.95;21.83;;;13.70;72.30;;;;;;5112983;28;20369;-74
2023/05/08 07:26:42;;;;;;;28.50;20.67;;;13.70;71.60;;;;;;5115068;28;20028;-75
2023/05/08 07:29:08;;;;;;;31.95;21.77;;;13.70;70.20;;;;;;5115456;28;20321;-74
2023/05/08 07:31:33;;;;;;;27.00;19.10;;;13.70;69.60;;;;;;5116303;28;20023;-75
2023/05/08 07:33:59;;;;;;;29.85;20.45;;;13.70;69.00;;;;;;5115592;28;20032;-75
2023/05/08 07:36:25;;;;;;;37.25;25.10;;;13.70;68.10;;;;;;5112027;28;20110;-75
2023/05/08 07:38:50;;;;;;;44.03;25.90;;;13.80;68.20;;;;;;5115010;28;20364;-75
2023/05/08 07:41:16;;;;;;;35.15;23.52;;;13.70;68.10;;;;;;5115578;28;20031;-75
2023/05/08 07:43:43;;;;;;;27.85;20.90;;;13.60;67.90;;;;;;5097949;28;20043;-75
2023/05/08 07:46:16;;;;;;;20.88;16.92;;;13.80;66.50;;;;;;5114866;28;20081;-74
2023/05/08 07:48:41;;;;;;;20.95;15.63;;;13.90;66.70;;;;;;5116268;28;20035;-74
2023/05/08 07:51:07;;;;;;;19.33;14.05;;;14.00;68.10;;;;;;5114311;28;20031;-74
2023/05/08 07:53:32;;;;;;;20.13;14.13;;;14.00;72.60;;;;;;5114899;28;20485;-74
2023/05/08 07:55:58;;;;;;;20.00;14.63;;;13.90;76.90;;;;;;5115062;28;20312;-74
2023/05/08 07:58:23;;;;;;;18.20;13.13;;;13.90;75.60;;;;;;5115249;28;20032;-75
2023/05/08 08:00:49;;;;;;;19.25;14.73;;;13.90;76.50;;;;;;5115185;28;20077;-76
2023/05/08 08:03:14;;;;;;;19.45;14.48;;;13.90;77.10;;;;;;5114243;28;20028;-76
2023/05/08 08:05:40;;;;;;;16.58;12.68;;;13.90;76.80;;;;;;5115302;28;20020;-75
2023/05/08 08:08:06;;;;;;;18.23;12.68;;;13.90;77.70;;;;;;5114836;28;20289;-75
2023/05/08 08:10:32;;;;;;;17.15;12.88;;;14.00;77.60;;;;;;5115115;28;20046;-75
2023/05/08 08:13:01;;;;;;;13.70;10.95;;;14.00;79.50;;;;;;5114764;28;20026;-74
2023/05/08 08:15:27;;;;;;;15.85;11.75;;;14.10;80.20;;;;;;5096980;28;20324;-75
2023/05/08 08:17:53;;;;;;;13.77;10.68;;;14.10;81.90;;;;;;5115097;28;20030;-75
2023/05/08 08:20:19;;;;;;;14.57;10.88;;;14.10;83.40;;;;;;5114969;28;20020;-74
2023/05/08 08:22:44;;;;;;;13.07;8.93;;;14.20;84.10;;;;;;5115696;28;20035;-75
2023/05/08 08:25:10;;;;;;;11.55;9.38;;;14.20;84.60;;;;;;5118644;28;20144;-75
2023/05/08 08:27:35;;;;;;;12.60;8.85;;;14.30;83.50;;;;;;5119483;28;20068;-75
2023/05/08 08:30:01;;;;;;;13.25;8.93;;;14.40;82.90;;;;;;5118803;28;20034;-75
2023/05/08 08:32:26;;;;;;;10.00;6.95;;;14.50;82.10;;;;;;5117669;28;20034;-75
2023/05/08 08:34:52;;;;;;;9.05;7.18;;;14.40;83.80;;;;;;5118813;28;20035;-76
2023/05/08 08:37:18;;;;;;;10.95;7.60;;;14.40;82.70;;;;;;5118988;28;20024;-76
2023/05/08 08:39:43;;;;;;;10.20;7.72;;;14.20;85.40;;;;;;5117861;28;20097;-76
2023/05/08 08:42:09;;;;;;;9.23;6.50;;;14.30;81.40;;;;;;5116231;27;20388;-76
2023/05/08 08:44:34;;;;;;;7.20;4.90;;;14.40;81.40;;;;;;5118686;28;20032;-76
2023/05/08 08:47:01;;;;;;;8.25;5.78;;;14.40;85.50;;;;;;5119422;28;20085;-76
2023/05/08 08:49:39;;;;;;;8.05;4.85;;;14.40;86.30;;;;;;5119261;28;20028;-76
2023/05/08 08:52:14;;;;;;;6.82;4.93;;;14.50;85.90;;;;;;5119122;28;20069;-76
2023/05/08 08:54:42;;;;;;;8.80;4.68;;;14.50;85.20;;;;;;5099846;28;20032;-76
2023/05/08 08:57:09;;;;;;;6.07;4.30;;;14.60;84.70;;;;;;5118069;28;20035;-76
2023/05/08 08:59:37;;;;;;;8.05;3.60;;;14.80;84.40;;;;;;5119023;28;20095;-76
2023/05/08 09:02:07;;;;;;;5.00;3.55;;;14.80;85.30;;;;;;5119155;28;20427;-76
2023/05/08 09:04:33;;;;;;;5.63;3.60;;;14.70;84.80;;;;;;5118963;28;20024;-76
2023/05/08 09:06:59;;;;;;;5.97;3.53;;;14.80;84.40;;;;;;5119000;28;20096;-76
2023/05/08 09:09:25;;;;;;;6.28;3.65;;;14.80;86.40;;;;;;5117662;28;20038;-76
2023/05/08 09:11:51;;;;;;;6.15;4.00;;;14.80;86.40;;;;;;5117875;28;20055;-76
2023/05/08 09:14:17;;;;;;;5.47;3.50;;;14.70;85.60;;;;;;5118864;28;20104;-77
2023/05/08 09:16:42;;;;;;;5.50;3.42;;;14.80;85.70;;;;;;5118557;28;20046;-79
2023/05/08 09:19:09;;;;;;;5.72;3.17;;;14.80;84.00;;;;;;5116420;28;20027;-78
2023/05/08 09:21:35;;;;;;;7.53;3.00;;;14.90;84.20;;;;;;5096626;28;20468;-79
2023/05/08 09:24:03;;;;;;;5.10;3.20;;;15.00;84.50;;;;;;5117257;28;20102;-79
2023/05/08 09:26:32;;;;;;;4.28;2.55;;;15.20;86.60;;;;;;5118590;28;20020;-79
2023/05/08 09:29:08;;;;;;;5.78;2.35;;;15.30;87.50;;;;;;5118424;28;20016;-79
2023/05/08 09:31:39;;;;;;;5.53;2.10;;;15.60;88.20;;;;;;5117178;28;20106;-79
2023/05/08 09:34:09;;;;;;;4.78;2.40;;;15.80;89.90;;;;;;5118163;28;20020;-79
2023/05/08 09:36:35;;;;;;;4.40;2.60;;;16.20;91.00;;;;;;5118111;28;20372;-79
2023/05/08 09:39:02;;;;;;;3.78;2.03;;;16.60;93.30;;;;;;5117146;28;20315;-79
2023/05/08 09:41:27;;;;;;;4.50;2.15;;;16.80;93.00;;;;;;5118058;28;20020;-79
2023/05/08 09:44:03;;;;;;;3.58;2.05;;;17.00;95.20;;;;;;5118057;28;20309;-79
2023/05/08 09:46:30;;;;;;;3.45;2.00;;;16.90;95.10;;;;;;5117496;28;20024;-79
2023/05/08 09:48:57;;;;;;;5.15;2.25;;;17.00;96.40;;;;;;5117973;28;20023;-79
2023/05/08 09:51:25;;;;;;;4.30;2.75;;;17.20;97.00;;;;;;5118096;28;20039;-79
2023/05/08 09:53:54;;;;;;;4.13;2.63;;;17.20;98.00;;;;;;5116908;28;20019;-79
2023/05/08 09:56:38;;;;;;;5.45;2.88;;;17.10;97.40;;;;;;5117767;28;20388;-79
2023/05/08 09:59:20;;;;;;;5.40;3.72;;;16.70;94.40;;;;;;5117906;28;20020;-79
2023/05/08 10:01:47;;;;;;;7.00;3.95;;;16.30;92.00;;;;;;5098935;28;20031;-78
2023/05/08 10:04:13;;;;;;;6.47;3.70;;;16.30;91.20;;;;;;5117853;28;20455;-78
2023/05/08 10:06:39;;;;;;;7.22;3.85;;;16.40;91.80;;;;;;5117775;28;20066;-77
2023/05/08 10:09:12;;;;;;;7.05;3.83;;;16.30;90.30;;;;;;5116637;28;20030;-78
2023/05/08 10:11:40;;;;;;;7.57;3.60;;;16.20;90.30;;;;;;5099683;28;20024;-77
2023/05/08 10:14:05;;;;;;;5.07;3.22;;;15.90;88.30;;;;;;5117434;28;20027;-78
2023/05/08 10:16:40;;;;;;;7.28;4.22;;;15.90;87.40;;;;;;5116732;28;20043;-77
2023/05/08 10:19:11;;;;;;;6.68;3.53;;;15.90;87.40;;;;;;5117477;28;20072;-77
2023/05/08 10:21:39;;;;;;;6.22;3.50;;;16.00;87.10;;;;;;5099424;28;20031;-77
2023/05/08 10:24:09;;;;;;;7.70;3.47;;;16.20;89.90;;;;;;5116310;28;20312;-77
2023/05/08 10:26:40;;;;;;;6.20;3.83;;;16.30;90.00;;;;;;5117084;28;20016;-77
2023/05/08 10:29:12;;;;;;;5.88;3.78;;;16.30;91.10;;;;;;5098525;28;20425;-77
2023/05/08 10:31:42;;;;;;;6.47;3.90;;;16.20;90.00;;;;;;5096962;28;20431;-77
2023/05/08 10:34:17;;;;;;;5.45;3.58;;;16.40;90.60;;;;;;5079400;28;20032;-77
2023/05/08 10:36:43;;;;;;;7.53;4.25;;;16.90;92.60;;;;;;5096723;28;20056;-77
2023/05/08 10:39:10;;;;;;;6.68;4.70;;;17.30;94.00;;;;;;5095420;28;20020;-77
2023/05/08 10:41:36;;;;;;;7.22;4.00;;;17.50;96.30;;;;;;5096498;28;20016;-77
2023/05/08 10:44:02;;;;;;;6.80;4.53;;;17.70;97.30;;;;;;5097555;28;20058;-77
2023/05/08 10:46:43;;;;;;;7.47;4.72;;;18.20;98.00;;;;;;5112989;28;20024;-76
2023/05/08 10:49:23;;;;;;;6.30;4.38;;;18.40;98.00;;;;;;5116952;28;20022;-76
2023/05/08 10:52:00;;;;;;;5.00;2.92;;;18.70;97.50;;;;;;5116992;28;20098;-76
2023/05/08 10:54:50;;;;;;;4.30;2.88;;;19.10;98.00;;;;;;5097714;28;20024;-78
2023/05/08 10:57:15;;;;;;;4.25;2.75;;;19.10;97.10;;;;;;5116331;28;20032;-77
2023/05/08 10:59:45;;;;;;;4.90;2.78;;;19.00;95.20;;;;;;5116686;28;20024;-77
2023/05/08 11:02:12;;;;;;;4.50;2.85;;;19.00;97.60;;;;;;5116662;28;20103;-77
2023/05/08 11:04:38;;;;;;;4.82;2.90;;;19.60;98.00;;;;;;5116693;28;20024;-77
2023/05/08 11:07:04;;;;;;;5.85;2.75;;;19.70;96.00;;;;;;5098749;28;20030;-77
2023/05/08 11:09:50;;;;;;;5.45;2.67;;;20.10;96.10;;;;;;5115420;28;20031;-76
2023/05/08 11:12:19;;;;;;;4.20;2.22;;;20.40;93.60;;;;;;5095658;28;20036;-77
2023/05/08 11:15:06;;;;;;;3.60;2.28;;;20.80;94.50;;;;;;5115448;28;20033;-77
2023/05/08 11:17:32;;;;;;;3.97;2.63;;;21.30;93.30;;;;;;5115552;28;20027;-76
2023/05/08 11:20:00;;;;;;;4.15;2.60;;;21.10;87.40;;;;;;5116502;28;20094;-76
2023/05/08 11:22:28;;;;;;;4.47;2.45;;;20.60;91.10;;;;;;5114703;28;20076;-77
2023/05/08 11:25:06;;;;;;;5.13;2.50;;;20.60;91.20;;;;;;5096061;28;20031;-76
2023/05/08 11:27:47;;;;;;;4.30;2.17;;;21.10;93.10;;;;;;5096252;28;20429;-76
2023/05/08 11:30:24;;;;;;;5.32;2.33;;;21.90;91.00;;;;;;5114722;28;20023;-76
2023/05/08 11:33:11;;;;;;;4.50;2.05;;;22.40;87.60;;;;;;5097578;28;20032;-75
2023/05/08 11:35:46;;;;;;;5.95;4.38;;;22.60;85.60;;;;;;5116337;28;20020;-75
2023/05/08 11:38:20;;;;;;;9.85;6.05;;;22.20;89.10;;;;;;5113351;28;20038;-75
2023/05/08 11:40:46;;;;;;;8.88;6.43;;;20.60;92.80;;;;;;5115182;28;20020;-75
2023/05/08 11:43:24;;;;;;;7.32;5.25;;;19.50;96.40;;;;;;5115295;28;20335;-75
2023/05/08 11:45:51;;;;;;;7.97;6.30;;;19.00;97.00;;;;;;5116116;28;20069;-77
2023/05/08 11:48:18;;;;;;;7.85;4.68;;;18.70;97.10;;;;;;5114297;28;20318;-75
2023/05/08 11:50:44;;;;;;;8.43;6.65;;;18.40;97.40;;;;;;5116296;28;20098;-75
2023/05/08 11:53:09;;;;;;;7.28;5.60;;;18.10;96.70;;;;;;5114102;28;20130;-76
2023/05/08 11:55:35;;;;;;;7.15;5.18;;;17.70;97.90;;;;;;5116290;28;20032;-75
2023/05/08 11:58:01;;;;;;;8.40;5.43;;;17.60;97.50;;;;;;5119531;28;20028;-75
2023/05/08 12:00:26;;;;;;;9.85;7.10;;;17.70;97.60;;;;;;5120112;28;20019;-74
2023/05/08 12:02:52;;;;;;;10.48;7.38;;;18.00;97.50;;;;;;5117886;28;20027;-74
2023/05/08 12:05:26;;;;;;;9.88;7.68;;;18.10;97.50;;;;;;5119982;28;20096;-75
2023/05/08 12:07:51;;;;;;;12.80;9.52;;;17.90;96.80;;;;;;5100094;28;20055;-74
2023/05/08 12:10:17;;;;;;;11.13;8.27;;;17.60;95.90;;;;;;5119252;28;20067;-75
2023/05/08 12:12:43;;;;;;;11.45;9.15;;;17.40;95.60;;;;;;5119179;28;20028;-74
2023/05/08 12:15:11;;;;;;;12.10;9.20;;;17.30;94.60;;;;;;5100809;28;20035;-75
2023/05/08 12:17:37;;;;;;;13.50;9.25;;;17.30;94.70;;;;;;5117997;28;20062;-75
2023/05/08 12:20:17;;;;;;;11.90;9.45;;;17.40;94.60;;;;;;5102142;28;20345;-75
2023/05/08 12:22:50;;;;;;;10.07;8.30;;;17.60;94.90;;;;;;5117590;28;20047;-75
2023/05/08 12:25:16;;;;;;;12.67;9.60;;;17.50;97.50;;;;;;5118768;28;20020;-75
2023/05/08 12:27:43;;;;;;;14.93;10.05;;;17.40;96.10;;;;;;5114959;28;20412;-74
2023/05/08 12:30:13;;;;;;;17.05;11.10;;;17.30;96.80;;;;;;5108855;28;20031;-74
2023/05/08 12:32:42;;;;;;;14.90;10.88;;;17.20;94.10;;;;;;5116217;28;20041;-74
2023/05/08 12:35:09;;;;;;;16.08;11.32;;;17.30;94.40;;;;;;5115863;28;20111;-74
2023/05/08 12:37:35;;;;;;;14.25;10.35;;;17.40;95.60;;;;;;5117980;28;20154;-74
2023/05/08 12:40:02;;;;;;;12.57;9.23;;;17.30;96.20;;;;;;5118498;28;20106;-74
2023/05/08 12:42:49;;;;;;;14.73;10.05;;;17.00;96.60;;;;;;5119259;28;20036;-74
2023/05/08 12:45:23;;;;;;;15.40;12.18;;;16.80;95.10;;;;;;5096590;28;20032;-74
2023/05/08 12:47:50;;;;;;;15.23;11.20;;;16.60;93.30;;;;;;5116358;28;20467;-74
2023/05/08 12:50:17;;;;;;;14.35;11.32;;;16.30;93.50;;;;;;5098953;28;20336;-74